createdAt,value
2019-02-14T00:00:09.059Z,99.44
2019-02-14T00:02:37.664Z,99.59
2019-02-14T00:05:06.218Z,99.64
2019-02-14T00:07:34.632Z,99.89
2019-02-14T00:10:03.116Z,99.68
2019-02-14T00:12:31.639Z,99.46
2019-02-14T00:15:00.042Z,99.85
2019-02-14T00:17:28.496Z,99.41
2019-02-14T00:19:56.905Z,99.76
2019-02-14T00:22:25.335Z,99.20
2019-02-14T00:24:53.778Z,99.74
2019-02-14T00:27:24.630Z,100.00
2019-02-14T00:29:52.438Z,99.82
2019-02-14T00:32:20.849Z,99.10
2019-02-14T00:34:49.307Z,99.60
2019-02-14T00:37:17.804Z,99.87
2019-02-14T00:39:46.235Z,99.61
2019-02-14T00:42:14.699Z,99.98
2019-02-14T00:44:43.150Z,99.71
2019-02-14T00:47:11.558Z,99.70
2019-02-14T00:49:40.000Z,99.48
2019-02-14T00:52:08.444Z,99.19
2019-02-14T00:54:36.861Z,99.45
2019-02-14T00:57:05.309Z,99.28
2019-02-14T00:59:33.775Z,99.08
2019-02-14T01:02:02.162Z,99.26
2019-02-14T01:04:30.589Z,99.45
2019-02-14T01:06:59.039Z,99.58
2019-02-14T01:09:27.467Z,99.88
2019-02-14T01:11:55.939Z,100.00
2019-02-14T01:14:24.364Z,99.81
2019-02-14T01:16:52.784Z,99.70
2019-02-14T01:19:21.244Z,99.72
2019-02-14T01:21:49.746Z,99.75
2019-02-14T01:24:18.232Z,99.95
2019-02-14T01:26:46.686Z,99.73
2019-02-14T01:29:15.107Z,99.70
2019-02-14T01:31:43.575Z,99.84
2019-02-14T01:34:12.015Z,99.56
2019-02-14T01:36:40.675Z,99.63
2019-02-14T01:39:09.078Z,99.35
2019-02-14T01:41:37.519Z,99.71
2019-02-14T01:44:05.935Z,99.97
2019-02-14T01:46:34.377Z,100.00
2019-02-14T01:49:02.834Z,100.00
2019-02-14T01:51:31.274Z,100.00
2019-02-14T01:53:59.713Z,100.00
2019-02-14T01:56:28.818Z,100.00
2019-02-14T01:58:57.256Z,100.00
2019-02-14T02:01:26.140Z,100.00
2019-02-14T02:03:54.604Z,100.00
2019-02-14T02:06:23.029Z,100.00
2019-02-14T02:08:51.446Z,100.00
2019-02-14T02:11:19.894Z,100.00
2019-02-14T02:13:48.350Z,100.00
2019-02-14T02:16:16.754Z,100.00
2019-02-14T02:18:45.323Z,100.00
2019-02-14T02:21:13.739Z,100.00
2019-02-14T02:23:42.152Z,100.00
2019-02-14T02:26:10.610Z,100.00
2019-02-14T02:28:39.027Z,100.00
2019-02-14T02:31:07.470Z,100.00
2019-02-14T02:33:35.925Z,100.00
2019-02-14T02:36:04.454Z,100.00
2019-02-14T02:38:32.874Z,100.00
2019-02-14T02:41:01.325Z,100.00
2019-02-14T02:43:29.734Z,100.00
2019-02-14T02:45:58.186Z,100.00
2019-02-14T02:48:26.646Z,100.00
2019-02-14T02:50:55.087Z,100.00
2019-02-14T02:53:23.567Z,100.00
2019-02-14T02:55:51.988Z,100.00
2019-02-14T02:58:20.461Z,100.00
2019-02-14T03:00:48.882Z,100.00
2019-02-14T03:03:17.308Z,100.00
2019-02-14T03:05:45.763Z,100.00
2019-02-14T03:08:14.184Z,100.00
2019-02-14T03:10:42.656Z,100.00
2019-02-14T03:13:11.105Z,100.00
2019-02-14T03:15:39.545Z,100.00
2019-02-14T03:18:07.990Z,100.00
2019-02-14T03:20:36.434Z,100.00
2019-02-14T03:23:04.874Z,100.00
2019-02-14T03:25:33.298Z,100.00
2019-02-14T03:28:01.793Z,100.00
2019-02-14T03:30:30.222Z,100.00
2019-02-14T03:32:58.671Z,100.00
2019-02-14T03:35:27.097Z,100.00
2019-02-14T03:37:55.533Z,100.00
2019-02-14T03:40:23.946Z,100.00
2019-02-14T03:42:54.073Z,100.00
2019-02-14T03:45:22.573Z,100.00
2019-02-14T03:47:51.013Z,100.00
2019-02-14T03:50:19.516Z,100.00
2019-02-14T03:52:47.973Z,100.00
2019-02-14T03:55:16.424Z,100.00
2019-02-14T03:57:44.854Z,100.00
2019-02-14T04:00:17.929Z,100.00
2019-02-14T04:02:46.408Z,100.00
2019-02-14T04:05:14.883Z,100.00
2019-02-14T04:07:43.294Z,100.00
2019-02-14T04:10:13.593Z,100.00
2019-02-14T04:12:42.107Z,100.00
2019-02-14T04:15:15.914Z,100.00
2019-02-14T04:17:44.366Z,100.00
2019-02-14T04:20:14.572Z,100.00
2019-02-14T04:22:42.988Z,100.00
2019-02-14T04:25:11.858Z,100.00
2019-02-14T04:27:40.313Z,100.00
2019-02-14T04:30:13.356Z,100.00
2019-02-14T04:32:41.782Z,100.00
2019-02-14T04:35:10.294Z,100.00
2019-02-14T04:37:38.750Z,100.00
2019-02-14T04:40:12.563Z,100.00
2019-02-14T04:42:40.995Z,100.00
2019-02-14T04:45:11.483Z,100.00
2019-02-14T04:47:39.914Z,100.00
2019-02-14T04:50:10.901Z,100.00
2019-02-14T04:52:39.349Z,100.00
2019-02-14T04:55:10.662Z,100.00
2019-02-14T04:57:39.119Z,100.00
2019-02-14T05:00:14.974Z,100.00
2019-02-14T05:02:43.456Z,100.00
2019-02-14T05:05:12.120Z,100.00
2019-02-14T05:07:40.589Z,100.00
2019-02-14T05:10:11.245Z,100.00
2019-02-14T05:12:39.750Z,100.00
2019-02-14T05:15:10.254Z,100.00
2019-02-14T05:17:38.698Z,100.00
2019-02-14T05:20:09.770Z,100.00
2019-02-14T05:22:38.658Z,100.00
2019-02-14T05:25:08.990Z,100.00
2019-02-14T05:27:37.420Z,100.00
2019-02-14T05:30:08.980Z,100.00
2019-02-14T05:32:37.526Z,100.00
2019-02-14T05:35:07.115Z,100.00
2019-02-14T05:37:35.599Z,100.00
2019-02-14T05:40:05.962Z,100.00
2019-02-14T05:42:34.456Z,100.00
2019-02-14T05:45:03.179Z,100.00
2019-02-14T05:47:31.591Z,100.00
2019-02-14T05:50:00.061Z,100.00
2019-02-14T05:52:28.545Z,100.00
2019-02-14T05:54:56.975Z,100.00
2019-02-14T05:57:27.300Z,100.00
2019-02-14T05:59:55.681Z,100.00
2019-02-14T06:02:24.135Z,100.00
2019-02-14T06:04:52.593Z,100.00
2019-02-14T06:07:21.096Z,100.00
2019-02-14T06:09:49.533Z,100.00
2019-02-14T06:12:17.981Z,100.00
2019-02-14T06:14:46.496Z,100.00
2019-02-14T06:17:14.991Z,100.00
2019-02-14T06:19:43.395Z,100.00
2019-02-14T06:22:11.953Z,100.00
2019-02-14T06:24:40.412Z,100.00
2019-02-14T06:27:08.845Z,100.00
2019-02-14T06:29:37.320Z,100.00
2019-02-14T06:32:05.747Z,100.00
2019-02-14T06:34:34.193Z,100.00
2019-02-14T06:37:09.469Z,100.00
2019-02-14T06:39:32.824Z,100.00
2019-02-14T06:42:01.248Z,100.00
2019-02-14T06:44:29.803Z,100.00
2019-02-14T06:46:58.232Z,100.00
2019-02-14T06:49:26.667Z,100.00
2019-02-14T06:51:55.270Z,100.00
2019-02-14T06:54:26.455Z,100.00
2019-02-14T06:56:54.894Z,100.00
2019-02-14T06:59:24.319Z,100.00
2019-02-14T07:01:52.778Z,100.00
2019-02-14T07:04:21.220Z,100.00
2019-02-14T07:06:49.695Z,100.00
2019-02-14T07:09:18.137Z,100.00
2019-02-14T07:11:46.583Z,100.00
2019-02-14T07:14:15.046Z,100.00
2019-02-14T07:16:43.503Z,100.00
2019-02-14T07:19:12.022Z,100.00
2019-02-14T07:21:40.484Z,100.00
2019-02-14T07:24:08.951Z,100.00
2019-02-14T07:26:37.426Z,100.00
2019-02-14T07:29:05.851Z,99.77
2019-02-14T07:31:34.306Z,98.68
2019-02-14T07:34:04.047Z,98.06
2019-02-14T07:36:32.808Z,97.55
2019-02-14T07:39:01.309Z,95.67
2019-02-14T07:41:29.766Z,94.33
2019-02-14T07:43:58.218Z,91.36
2019-02-14T07:46:26.699Z,89.97
2019-02-14T07:48:55.168Z,90.14
2019-02-14T07:51:23.600Z,88.66
2019-02-14T07:53:52.037Z,88.12
2019-02-14T07:56:20.499Z,87.45
2019-02-14T07:58:48.941Z,87.88
2019-02-14T08:01:17.363Z,87.62
2019-02-14T08:03:45.802Z,85.16
2019-02-14T08:06:14.243Z,84.63
2019-02-14T08:08:42.667Z,84.56
2019-02-14T08:11:11.127Z,84.55
2019-02-14T08:13:39.561Z,83.82
2019-02-14T08:16:08.241Z,81.57
2019-02-14T08:18:36.671Z,80.52
2019-02-14T08:21:05.101Z,79.33
2019-02-14T08:23:33.565Z,79.55
2019-02-14T08:26:10.417Z,79.39
2019-02-14T08:28:32.164Z,78.94
2019-02-14T08:31:00.626Z,77.15
2019-02-14T08:33:29.047Z,76.67
2019-02-14T08:35:57.488Z,73.66
2019-02-14T08:38:25.945Z,72.64
2019-02-14T08:40:55.298Z,73.07
2019-02-14T08:43:25.547Z,71.59
2019-02-14T08:45:53.961Z,70.86
2019-02-14T08:48:22.409Z,70.97
2019-02-14T08:50:50.908Z,70.42
2019-02-14T08:53:19.386Z,69.13
2019-02-14T08:55:47.836Z,66.02
2019-02-14T08:58:16.307Z,66.47
2019-02-14T09:00:44.855Z,65.94
2019-02-14T09:03:13.319Z,67.20
2019-02-14T09:05:41.827Z,68.09
2019-02-14T09:08:10.274Z,70.49
2019-02-14T09:10:38.714Z,70.41
2019-02-14T09:13:07.166Z,67.35
2019-02-14T09:15:35.675Z,68.95
2019-02-14T09:18:04.105Z,67.10
2019-02-14T09:20:32.516Z,65.20
2019-02-14T09:23:01.063Z,63.32
2019-02-14T09:25:29.473Z,61.00
2019-02-14T09:27:57.920Z,57.54
2019-02-14T09:30:26.381Z,56.19
2019-02-14T09:32:54.919Z,57.11
2019-02-14T09:35:23.384Z,57.94
2019-02-14T09:37:51.835Z,57.94
2019-02-14T09:40:20.271Z,58.40
2019-02-14T09:42:48.719Z,59.40
2019-02-14T09:45:17.222Z,59.04
2019-02-14T09:47:45.682Z,59.04
2019-02-14T09:50:15.728Z,57.89
2019-02-14T09:52:45.722Z,57.40
2019-02-14T09:55:14.810Z,58.00
2019-02-14T09:57:43.355Z,58.21
2019-02-14T10:00:14.538Z,57.48
2019-02-14T10:02:42.994Z,55.80
2019-02-14T10:05:11.903Z,56.33
2019-02-14T10:07:40.424Z,56.63
2019-02-14T10:10:12.279Z,57.76
2019-02-14T10:12:40.736Z,58.30
2019-02-14T10:15:10.558Z,57.83
2019-02-14T10:17:38.963Z,58.87
2019-02-14T10:20:13.109Z,59.38
2019-02-14T10:22:41.651Z,60.28
2019-02-14T10:25:10.833Z,60.73
2019-02-14T10:27:39.326Z,61.06
2019-02-14T10:30:10.841Z,61.32
2019-02-14T10:32:39.299Z,61.30
2019-02-14T10:35:07.786Z,63.40
2019-02-14T10:37:36.160Z,64.19
2019-02-14T10:40:06.998Z,62.88
2019-02-14T10:42:35.454Z,63.50
2019-02-14T10:45:05.248Z,63.31
2019-02-14T10:47:33.804Z,64.04
2019-02-14T10:50:02.239Z,64.12
2019-02-14T10:52:30.694Z,64.54
2019-02-14T10:54:59.133Z,63.58
2019-02-14T10:57:27.573Z,64.17
2019-02-14T10:59:56.294Z,64.83
2019-02-14T11:02:24.739Z,62.49
2019-02-14T11:04:53.252Z,61.82
2019-02-14T11:07:21.684Z,61.98
2019-02-14T11:09:50.431Z,62.37
2019-02-14T11:12:18.906Z,62.73
2019-02-14T11:14:47.520Z,62.00
2019-02-14T11:17:16.111Z,60.69
2019-02-14T11:19:44.508Z,60.78
2019-02-14T11:22:12.944Z,61.24
2019-02-14T11:24:41.391Z,61.58
2019-02-14T11:27:10.350Z,60.80
2019-02-14T11:29:38.781Z,60.25
2019-02-14T11:32:07.213Z,58.75
2019-02-14T11:34:35.637Z,59.10
2019-02-14T11:37:04.161Z,59.48
2019-02-14T11:39:32.609Z,58.89
2019-02-14T11:42:01.087Z,60.38
2019-02-14T11:44:29.519Z,59.33
2019-02-14T11:46:57.980Z,57.58
2019-02-14T11:49:26.469Z,58.57
2019-02-14T11:51:55.004Z,59.82
2019-02-14T11:54:23.450Z,61.24
2019-02-14T11:56:51.890Z,61.15
2019-02-14T11:59:20.339Z,61.13
2019-02-14T12:01:55.132Z,60.40
2019-02-14T12:04:18.913Z,60.53
2019-02-14T12:06:47.458Z,60.75
2019-02-14T12:09:15.881Z,60.23
2019-02-14T12:11:44.355Z,56.69
2019-02-14T12:14:12.759Z,58.62
2019-02-14T12:16:42.757Z,58.86
2019-02-14T12:19:11.224Z,60.04
2019-02-14T12:21:39.679Z,57.90
2019-02-14T12:24:08.146Z,59.03
2019-02-14T12:26:36.667Z,57.73
2019-02-14T12:29:05.018Z,56.70
2019-02-14T12:31:33.472Z,57.44
2019-02-14T12:34:01.911Z,57.16
2019-02-14T12:36:30.405Z,58.60
2019-02-14T12:38:58.838Z,59.22
2019-02-14T12:41:27.265Z,57.77
2019-02-14T12:43:55.705Z,59.00
2019-02-14T12:46:24.140Z,59.91
2019-02-14T12:48:52.588Z,57.21
2019-02-14T12:51:21.020Z,56.97
2019-02-14T12:53:49.450Z,57.89
2019-02-14T12:56:17.908Z,58.06
2019-02-14T12:58:46.350Z,57.72
2019-02-14T13:01:14.797Z,58.37
2019-02-14T13:03:43.241Z,58.21
2019-02-14T13:06:11.745Z,58.48
2019-02-14T13:08:40.207Z,56.69
2019-02-14T13:11:08.648Z,56.38
2019-02-14T13:13:37.071Z,55.57
2019-02-14T13:16:05.553Z,56.82
2019-02-14T13:18:33.991Z,57.64
2019-02-14T13:21:02.420Z,59.62
2019-02-14T13:23:30.891Z,57.23
2019-02-14T13:25:59.361Z,57.50
2019-02-14T13:28:27.818Z,57.50
2019-02-14T13:30:56.262Z,57.62
2019-02-14T13:33:24.722Z,55.76
2019-02-14T13:35:53.402Z,54.14
2019-02-14T13:38:21.922Z,53.55
2019-02-14T13:40:50.349Z,51.85
2019-02-14T13:43:18.781Z,50.57
2019-02-14T13:45:47.399Z,50.93
2019-02-14T13:48:15.908Z,51.39
2019-02-14T13:50:44.320Z,51.76
2019-02-14T13:53:12.744Z,52.41
2019-02-14T13:55:41.451Z,51.11
2019-02-14T13:58:09.961Z,51.77
2019-02-14T14:00:38.524Z,52.42
2019-02-14T14:03:06.990Z,52.46
2019-02-14T14:05:35.449Z,52.15
2019-02-14T14:08:04.015Z,53.18
2019-02-14T14:10:32.462Z,53.85
2019-02-14T14:13:00.887Z,53.35
2019-02-14T14:15:29.383Z,53.41
2019-02-14T14:17:57.833Z,53.90
2019-02-14T14:20:26.285Z,54.14
2019-02-14T14:22:54.756Z,54.53
2019-02-14T14:25:23.232Z,55.40
2019-02-14T14:27:51.665Z,56.08
2019-02-14T14:30:20.145Z,56.18
2019-02-14T14:32:48.557Z,56.25
2019-02-14T14:35:17.952Z,55.37
2019-02-14T14:37:46.506Z,56.18
2019-02-14T14:40:16.691Z,56.89
2019-02-14T14:42:52.761Z,57.58
2019-02-14T14:45:40.077Z,56.93
2019-02-14T14:48:18.925Z,57.22
2019-02-14T14:50:40.414Z,57.39
2019-02-14T14:53:08.850Z,57.75
2019-02-14T14:55:37.272Z,57.07
2019-02-14T14:58:05.876Z,57.67
2019-02-14T15:00:34.326Z,58.11
2019-02-14T15:03:02.749Z,58.61
2019-02-14T15:05:31.180Z,59.49
2019-02-14T15:07:59.629Z,59.62
2019-02-14T15:10:28.084Z,59.95
2019-02-14T15:12:56.697Z,60.87
2019-02-14T15:15:25.107Z,60.36
2019-02-14T15:17:53.553Z,59.41
2019-02-14T15:20:21.987Z,58.37
2019-02-14T15:22:50.433Z,58.06
2019-02-14T15:25:18.877Z,58.62
2019-02-14T15:27:47.359Z,58.14
2019-02-14T15:30:15.706Z,58.80
2019-02-14T15:32:44.197Z,58.90
2019-02-14T15:35:12.591Z,58.53
2019-02-14T15:37:41.968Z,59.43
2019-02-14T15:40:11.237Z,59.48
2019-02-14T15:42:39.670Z,60.99
2019-02-14T15:45:08.728Z,59.99
2019-02-14T15:47:37.179Z,60.13
2019-02-14T15:50:08.882Z,59.59
2019-02-14T15:52:37.537Z,60.00
2019-02-14T15:55:07.306Z,59.97
2019-02-14T15:57:35.740Z,60.16
2019-02-14T16:00:09.657Z,61.18
2019-02-14T16:02:36.081Z,60.77
2019-02-14T16:05:05.756Z,61.60
2019-02-14T16:07:34.219Z,60.95
2019-02-14T16:10:05.421Z,61.42
2019-02-14T16:12:32.839Z,61.25
2019-02-14T16:15:01.251Z,61.59
2019-02-14T16:17:29.698Z,61.75
2019-02-14T16:19:59.717Z,62.29
2019-02-14T16:22:30.005Z,62.87
2019-02-14T16:24:58.387Z,62.73
2019-02-14T16:27:26.984Z,63.19
2019-02-14T16:29:55.332Z,63.25
2019-02-14T16:32:23.768Z,63.19
2019-02-14T16:34:52.177Z,63.59
2019-02-14T16:37:20.583Z,63.76
2019-02-14T16:39:51.753Z,64.60
2019-02-14T16:42:19.254Z,64.25
2019-02-14T16:44:47.731Z,65.04
2019-02-14T16:47:16.164Z,65.67
2019-02-14T16:49:44.597Z,65.87
2019-02-14T16:52:13.122Z,65.26
2019-02-14T16:54:41.586Z,65.32
2019-02-14T16:57:10.057Z,65.58
2019-02-14T16:59:38.470Z,65.51
2019-02-14T17:02:06.900Z,65.68
2019-02-14T17:04:35.345Z,66.16
2019-02-14T17:07:03.838Z,66.62
2019-02-14T17:09:32.277Z,65.91
2019-02-14T17:12:00.695Z,65.89
2019-02-14T17:14:29.154Z,66.44
2019-02-14T17:16:57.602Z,67.50
2019-02-14T17:19:26.032Z,68.80
2019-02-14T17:21:54.501Z,69.55
2019-02-14T17:24:22.932Z,70.30
2019-02-14T17:26:51.377Z,70.02
2019-02-14T17:29:19.801Z,70.36
2019-02-14T17:31:48.355Z,70.83
2019-02-14T17:34:16.735Z,71.06
2019-02-14T17:36:45.170Z,71.15
2019-02-14T17:39:13.707Z,71.88
2019-02-14T17:41:42.140Z,71.94
2019-02-14T17:44:10.621Z,71.98
2019-02-14T17:46:38.997Z,72.40
2019-02-14T17:49:07.433Z,72.86
2019-02-14T17:51:35.876Z,73.24
2019-02-14T17:54:04.417Z,73.49
2019-02-14T17:56:32.864Z,73.83
2019-02-14T17:59:01.459Z,74.40
2019-02-14T18:01:30.065Z,74.80
2019-02-14T18:03:58.491Z,75.08
2019-02-14T18:06:26.934Z,75.87
2019-02-14T18:08:55.378Z,76.22
2019-02-14T18:11:23.848Z,76.83
2019-02-14T18:13:52.297Z,76.84
2019-02-14T18:16:20.705Z,77.63
2019-02-14T18:18:49.219Z,77.68
2019-02-14T18:21:17.703Z,78.17
2019-02-14T18:23:46.238Z,78.83
2019-02-14T18:26:14.868Z,79.22
2019-02-14T18:28:43.602Z,79.29
2019-02-14T18:31:12.102Z,79.56
2019-02-14T18:33:40.567Z,79.91
2019-02-14T18:36:08.990Z,80.34
2019-02-14T18:38:37.412Z,80.47
2019-02-14T18:41:06.023Z,81.01
2019-02-14T18:43:34.474Z,81.44
2019-02-14T18:46:02.891Z,81.26
2019-02-14T18:48:31.345Z,81.64
2019-02-14T18:50:59.761Z,81.59
2019-02-14T18:53:28.204Z,82.04
2019-02-14T18:55:56.712Z,82.15
2019-02-14T18:58:26.825Z,82.25
2019-02-14T19:00:55.330Z,82.51
2019-02-14T19:03:23.757Z,83.30
2019-02-14T19:05:52.235Z,83.24
2019-02-14T19:08:20.730Z,83.30
2019-02-14T19:10:49.184Z,83.82
2019-02-14T19:13:18.796Z,83.86
2019-02-14T19:15:47.752Z,84.08
2019-02-14T19:18:16.216Z,84.24
2019-02-14T19:20:44.637Z,84.46
2019-02-14T19:23:23.308Z,84.80
2019-02-14T19:25:43.300Z,85.35
2019-02-14T19:28:11.740Z,85.72
2019-02-14T19:30:40.198Z,85.86
2019-02-14T19:33:08.672Z,86.01
2019-02-14T19:35:37.096Z,86.00
2019-02-14T19:38:05.581Z,86.35
2019-02-14T19:40:34.062Z,86.44
2019-02-14T19:43:02.521Z,86.91
2019-02-14T19:45:36.722Z,86.86
2019-02-14T19:48:01.132Z,86.96
2019-02-14T19:50:29.553Z,87.09
2019-02-14T19:52:57.979Z,87.19
2019-02-14T19:55:26.424Z,87.27
2019-02-14T19:57:54.841Z,87.32
2019-02-14T20:00:23.301Z,87.59
2019-02-14T20:02:51.710Z,87.74
2019-02-14T20:05:20.137Z,87.73
2019-02-14T20:07:48.755Z,88.43
2019-02-14T20:10:17.186Z,88.29
2019-02-14T20:12:45.621Z,88.75
2019-02-14T20:15:16.404Z,88.95
2019-02-14T20:17:44.890Z,88.95
2019-02-14T20:20:13.302Z,88.94
2019-02-14T20:22:41.725Z,88.79
2019-02-14T20:25:13.210Z,88.74
2019-02-14T20:27:41.665Z,88.56
2019-02-14T20:30:10.141Z,88.52
2019-02-14T20:32:38.618Z,89.12
2019-02-14T20:35:09.004Z,89.38
2019-02-14T20:37:37.443Z,89.24
2019-02-14T20:40:09.310Z,89.63
2019-02-14T20:42:37.845Z,89.78
2019-02-14T20:45:15.974Z,89.60
2019-02-14T20:47:44.451Z,89.90
2019-02-14T20:50:14.575Z,90.47
2019-02-14T20:52:43.268Z,90.48
2019-02-14T20:55:23.390Z,90.33
2019-02-14T20:57:51.822Z,90.89
2019-02-14T21:00:21.996Z,90.99
2019-02-14T21:02:50.385Z,91.01
2019-02-14T21:05:18.811Z,91.01
2019-02-14T21:07:47.237Z,90.39
2019-02-14T21:10:15.636Z,90.60
2019-02-14T21:12:44.084Z,90.30
2019-02-14T21:15:12.517Z,90.23
2019-02-14T21:17:41.094Z,89.93
2019-02-14T21:20:12.490Z,90.18
2019-02-14T21:22:41.051Z,89.76
2019-02-14T21:25:10.132Z,89.49
2019-02-14T21:27:39.090Z,89.83
2019-02-14T21:30:16.425Z,90.50
2019-02-14T21:32:44.851Z,90.93
2019-02-14T21:35:13.377Z,91.32
2019-02-14T21:37:41.960Z,91.19
2019-02-14T21:40:13.246Z,90.79
2019-02-14T21:42:41.757Z,91.21
2019-02-14T21:45:12.743Z,91.30
2019-02-14T21:47:41.286Z,91.08
2019-02-14T21:50:11.367Z,91.11
2019-02-14T21:52:39.850Z,91.41
2019-02-14T21:55:10.591Z,92.14
2019-02-14T21:57:39.142Z,91.95
2019-02-14T22:00:25.788Z,92.26
2019-02-14T22:02:54.291Z,92.28
2019-02-14T22:05:25.741Z,92.57
2019-02-14T22:07:52.960Z,92.66
2019-02-14T22:10:21.389Z,92.93
2019-02-14T22:12:49.984Z,93.16
2019-02-14T22:15:24.377Z,92.90
2019-02-14T22:17:52.916Z,92.98
2019-02-14T22:20:21.427Z,93.07
2019-02-14T22:22:49.877Z,93.00
2019-02-14T22:25:18.389Z,93.30
2019-02-14T22:27:46.870Z,93.23
2019-02-14T22:30:16.345Z,93.44
2019-02-14T22:32:46.517Z,93.56
2019-02-14T22:35:15.123Z,93.85
2019-02-14T22:37:43.581Z,93.93
2019-02-14T22:40:14.432Z,94.06
2019-02-14T22:42:47.076Z,94.13
2019-02-14T22:45:16.191Z,94.46
2019-02-14T22:47:45.138Z,94.97
2019-02-14T22:50:14.428Z,95.48
2019-02-14T22:52:42.865Z,95.59
2019-02-14T22:55:12.838Z,95.56
2019-02-14T22:57:41.327Z,96.01
2019-02-14T23:00:30.138Z,96.20
2019-02-14T23:02:58.789Z,95.91
2019-02-14T23:05:27.255Z,95.93
2019-02-14T23:07:55.759Z,96.21
2019-02-14T23:10:24.263Z,95.98
2019-02-14T23:12:55.755Z,96.02
2019-02-14T23:15:22.989Z,96.36
2019-02-14T23:17:51.432Z,96.41
2019-02-14T23:20:19.854Z,96.60
2019-02-14T23:22:48.320Z,96.77
2019-02-14T23:25:16.710Z,96.85
2019-02-14T23:27:45.283Z,96.81
2019-02-14T23:30:13.834Z,96.84
2019-02-14T23:32:42.313Z,96.95
2019-02-14T23:35:10.910Z,96.82
2019-02-14T23:37:39.732Z,96.56
2019-02-14T23:40:08.354Z,96.70
2019-02-14T23:42:36.983Z,97.10
2019-02-14T23:45:08.370Z,97.69
2019-02-14T23:47:37.242Z,97.62
2019-02-14T23:50:08.234Z,97.80
2019-02-14T23:52:36.653Z,98.00
2019-02-14T23:55:07.105Z,98.47
2019-02-14T23:57:35.557Z,98.26
